Terminal Aerodrome Forecast
Issued by NWS Cleveland, OH

Home | Current Version | Previous Version | Graphics & Text | Print | Product List | Glossary On
Versions: 1 2 3 4 5 6 7 8 9 10 11 12 13 14 15 16 17 18 19 20 21 22 23 24 25 26 27 28 29 30 31 32
000
FTUS41 KCLE 202000 AAA
TAFCLE
TAF AMD
KCLE 202057Z 2021/2124 20010KT P6SM -SHRA SCT025 OVC035
      TEMPO 2021/2024 5SM -SHRA OVC025
     FM210000 24010KT 6SM -SHRA SCT025 OVC035
     FM210400 27008KT P6SM VCSH OVC025
     FM210700 28008KT 5SM -DZ BR OVC015
     FM211300 31012KT P6SM OVC025=

USA.gov is the U.S. government's official web portal to all federal, state and local government web resources and services.